createdAt,value
2023-04-06T00:00:46.188Z,5.80
2023-04-06T00:03:14.436Z,5.93
2023-04-06T00:05:42.809Z,5.37
2023-04-06T00:08:13.074Z,8.40
2023-04-06T00:10:41.692Z,5.57
2023-04-06T00:13:09.986Z,5.97
2023-04-06T00:15:38.278Z,8.53
2023-04-06T00:18:06.875Z,9.33
2023-04-06T00:20:35.165Z,6.40
2023-04-06T00:23:03.446Z,5.53
2023-04-06T00:25:33.416Z,4.77
2023-04-06T00:28:01.935Z,4.43
2023-04-06T00:30:30.500Z,5.83
2023-04-06T00:32:58.868Z,5.00
2023-04-06T00:35:27.501Z,5.10
2023-04-06T00:37:55.977Z,4.77
2023-04-06T00:40:24.248Z,4.27
2023-04-06T00:42:54.077Z,4.57
2023-04-06T00:45:22.493Z,5.73
2023-04-06T00:47:50.926Z,5.53
2023-04-06T00:50:19.627Z,5.23
2023-04-06T00:52:47.797Z,5.70
2023-04-06T00:55:16.140Z,5.93
2023-04-06T00:57:45.211Z,6.37
2023-04-06T01:00:17.294Z,4.87
2023-04-06T01:02:47.849Z,4.83
2023-04-06T01:05:19.818Z,5.67
2023-04-06T01:07:52.767Z,5.50
2023-04-06T01:10:26.115Z,6.13
2023-04-06T01:12:59.225Z,8.93
2023-04-06T01:15:46.156Z,6.23
2023-04-06T01:18:18.598Z,5.83
2023-04-06T01:20:57.414Z,4.97
2023-04-06T01:23:29.464Z,5.60
2023-04-06T01:25:57.910Z,7.73
2023-04-06T01:28:26.695Z,5.33
2023-04-06T01:31:06.046Z,6.87
2023-04-06T01:33:46.505Z,4.97
2023-04-06T01:36:18.728Z,6.70
2023-04-06T01:38:53.714Z,6.43
2023-04-06T01:41:26.506Z,5.57
2023-04-06T01:43:56.019Z,5.77
2023-04-06T01:46:28.726Z,6.20
2023-04-06T01:48:57.392Z,5.30
2023-04-06T01:51:43.638Z,7.40
2023-04-06T01:54:16.117Z,7.27
2023-04-06T01:56:55.383Z,8.27
2023-04-06T01:59:45.654Z,9.03
2023-04-06T02:02:28.097Z,6.87
2023-04-06T02:05:07.657Z,6.43
2023-04-06T02:07:36.224Z,9.03
2023-04-06T02:10:06.931Z,5.80
2023-04-06T02:12:39.300Z,5.43
2023-04-06T02:15:11.752Z,6.97
2023-04-06T02:17:40.014Z,5.57
2023-04-06T02:20:09.247Z,7.87
2023-04-06T02:22:37.598Z,7.00
2023-04-06T02:25:07.956Z,5.80
2023-04-06T02:27:36.592Z,6.47
2023-04-06T02:30:05.050Z,5.20
2023-04-06T02:32:33.550Z,11.17
2023-04-06T02:35:02.437Z,7.87
2023-04-06T02:37:32.095Z,6.30
2023-04-06T02:40:01.097Z,5.03
2023-04-06T02:42:33.426Z,4.90
2023-04-06T02:45:02.125Z,7.93
2023-04-06T02:47:35.712Z,7.63
2023-04-06T02:50:04.139Z,6.23
2023-04-06T02:52:34.410Z,5.10
2023-04-06T02:55:02.997Z,6.60
2023-04-06T02:57:34.150Z,5.90
2023-04-06T03:00:02.548Z,6.53
2023-04-06T03:02:38.888Z,5.37
2023-04-06T03:05:11.426Z,6.70
2023-04-06T03:07:43.591Z,6.30
2023-04-06T03:10:19.164Z,8.03
2023-04-06T03:12:50.828Z,6.13
2023-04-06T03:15:23.789Z,8.40
2023-04-06T03:18:00.123Z,5.43
2023-04-06T03:20:39.938Z,5.47
2023-04-06T03:23:08.446Z,6.87
2023-04-06T03:25:41.721Z,6.03
2023-04-06T03:28:14.305Z,4.43
2023-04-06T03:30:51.273Z,5.40
2023-04-06T03:33:28.107Z,4.87
2023-04-06T03:35:57.394Z,5.53
2023-04-06T03:38:27.851Z,5.40
2023-04-06T03:40:56.961Z,4.93
2023-04-06T03:43:29.867Z,6.53
2023-04-06T03:45:58.406Z,4.40
2023-04-06T03:48:26.815Z,5.83
2023-04-06T03:50:55.062Z,6.23
2023-04-06T03:53:23.559Z,8.27
2023-04-06T03:55:55.630Z,7.70
2023-04-06T03:58:24.216Z,8.13
2023-04-06T04:00:55.891Z,12.90
2023-04-06T04:03:24.740Z,13.23
2023-04-06T04:05:53.228Z,12.47
2023-04-06T04:08:21.777Z,14.43
2023-04-06T04:10:50.025Z,13.80
2023-04-06T04:13:18.362Z,13.20
2023-04-06T04:15:49.683Z,14.77
2023-04-06T04:18:19.380Z,16.17
2023-04-06T04:20:48.603Z,13.77
2023-04-06T04:23:17.220Z,14.87
2023-04-06T04:25:46.001Z,13.37
2023-04-06T04:28:14.771Z,10.57
2023-04-06T04:30:44.148Z,12.47
2023-04-06T04:33:13.852Z,11.07
2023-04-06T04:35:45.080Z,13.80
2023-04-06T04:38:17.568Z,11.70
2023-04-06T04:40:50.587Z,12.97
2023-04-06T04:43:22.284Z,13.13
2023-04-06T04:45:50.645Z,13.17
2023-04-06T04:48:38.431Z,13.23
2023-04-06T04:51:10.180Z,12.27
2023-04-06T04:54:05.116Z,15.53
2023-04-06T04:56:34.814Z,14.77
2023-04-06T04:59:16.448Z,15.73
2023-04-06T05:01:55.309Z,17.30
2023-04-06T05:04:30.483Z,16.57
2023-04-06T05:07:08.330Z,19.27
2023-04-06T05:09:38.494Z,19.27
2023-04-06T05:12:07.628Z,16.83
2023-04-06T05:14:41.969Z,16.67
2023-04-06T05:17:16.098Z,15.57
2023-04-06T05:19:44.444Z,19.63
2023-04-06T05:22:18.625Z,14.80
2023-04-06T05:24:51.563Z,15.13
2023-04-06T05:27:19.995Z,15.97
2023-04-06T05:29:49.178Z,13.47
2023-04-06T05:32:18.273Z,13.73
2023-04-06T05:34:47.101Z,15.13
2023-04-06T05:37:16.980Z,15.13
2023-04-06T05:39:45.307Z,16.40
2023-04-06T05:42:13.537Z,11.50
2023-04-06T05:44:53.420Z,11.60
2023-04-06T05:47:22.630Z,8.40
2023-04-06T05:49:57.571Z,11.30
2023-04-06T05:52:35.884Z,9.10
2023-04-06T05:55:04.880Z,7.83
2023-04-06T05:57:34.179Z,8.87
2023-04-06T06:00:03.220Z,7.77
2023-04-06T06:02:41.167Z,9.57
2023-04-06T06:05:12.933Z,7.27
2023-04-06T06:07:44.841Z,5.50
2023-04-06T06:10:13.574Z,12.10
2023-04-06T06:12:41.964Z,5.93
2023-04-06T06:15:10.846Z,8.97
2023-04-06T06:17:44.370Z,8.43
2023-04-06T06:20:13.927Z,12.53
2023-04-06T06:22:42.349Z,7.83
2023-04-06T06:25:17.131Z,9.40
2023-04-06T06:27:47.869Z,6.73
2023-04-06T06:30:20.461Z,6.17
2023-04-06T06:32:52.439Z,15.10
2023-04-06T06:35:21.466Z,13.67
2023-04-06T06:37:50.513Z,14.57
2023-04-06T06:40:25.277Z,9.73
2023-04-06T06:42:55.311Z,13.97
2023-04-06T06:45:31.735Z,16.40
2023-04-06T06:48:00.276Z,13.43
2023-04-06T06:50:29.327Z,20.17
2023-04-06T06:52:57.625Z,12.30
2023-04-06T06:55:27.826Z,14.07
2023-04-06T06:57:56.483Z,11.90
2023-04-06T07:00:25.212Z,14.27
2023-04-06T07:02:54.924Z,13.60
2023-04-06T07:05:27.437Z,15.30
2023-04-06T07:07:58.892Z,18.00
2023-04-06T07:10:29.291Z,15.93
2023-04-06T07:12:57.682Z,12.97
2023-04-06T07:15:25.980Z,11.77
2023-04-06T07:17:55.755Z,17.20
2023-04-06T07:20:24.947Z,14.07
2023-04-06T07:22:53.275Z,9.60
2023-04-06T07:25:24.341Z,15.80
2023-04-06T07:27:55.390Z,7.17
2023-04-06T07:30:26.353Z,7.60
2023-04-06T07:32:56.625Z,8.87
2023-04-06T07:35:27.339Z,11.70
2023-04-06T07:37:56.772Z,11.17
2023-04-06T07:40:27.399Z,9.00
2023-04-06T07:42:58.492Z,5.90
2023-04-06T07:45:27.658Z,11.07
2023-04-06T07:47:56.883Z,19.40
2023-04-06T07:50:27.241Z,12.13
2023-04-06T07:52:56.483Z,11.20
2023-04-06T07:55:25.042Z,10.67
2023-04-06T07:57:53.505Z,8.40
2023-04-06T08:00:24.179Z,10.80
2023-04-06T08:02:52.727Z,8.23
2023-04-06T08:05:21.878Z,4.45
2023-04-06T08:07:50.753Z,5.53
2023-04-06T08:10:19.611Z,5.97
2023-04-06T08:12:48.652Z,9.23
2023-04-06T08:15:19.285Z,7.03
2023-04-06T08:17:49.083Z,4.75
2023-04-06T08:20:17.483Z,4.35
2023-04-06T08:22:46.123Z,9.15
2023-04-06T08:25:14.490Z,4.90
2023-04-06T08:27:42.970Z,4.43
2023-04-06T08:30:16.475Z,6.50
2023-04-06T08:32:45.172Z,10.35
2023-04-06T08:35:14.899Z,5.88
2023-04-06T08:37:43.325Z,5.80
2023-04-06T08:40:13.182Z,5.35
2023-04-06T08:42:43.347Z,4.65
2023-04-06T08:45:12.615Z,6.78
2023-04-06T08:47:42.020Z,6.35
2023-04-06T08:50:12.370Z,4.57
2023-04-06T08:52:44.712Z,6.38
2023-04-06T08:55:13.025Z,4.53
2023-04-06T08:57:42.415Z,3.58
2023-04-06T09:00:13.225Z,4.03
2023-04-06T09:02:42.505Z,3.88
2023-04-06T09:05:11.860Z,3.35
2023-04-06T09:07:42.023Z,2.83
2023-04-06T09:10:11.142Z,3.33
2023-04-06T09:12:39.492Z,2.70
2023-04-06T09:15:08.961Z,2.95
2023-04-06T09:17:37.903Z,2.75
2023-04-06T09:20:07.032Z,2.50
2023-04-06T09:22:39.217Z,3.22
2023-04-06T09:25:10.986Z,5.10
2023-04-06T09:27:40.072Z,3.05
2023-04-06T09:30:11.243Z,5.50
2023-04-06T09:32:51.038Z,4.65
2023-04-06T09:35:21.219Z,3.38
2023-04-06T09:37:50.160Z,3.35
2023-04-06T09:40:20.543Z,2.58
2023-04-06T09:42:51.233Z,4.32
2023-04-06T09:45:19.755Z,4.85
2023-04-06T09:47:48.554Z,4.22
2023-04-06T09:50:17.511Z,3.97
2023-04-06T09:52:50.653Z,2.83
2023-04-06T09:55:26.507Z,3.47
2023-04-06T09:58:00.482Z,3.08
2023-04-06T10:00:30.775Z,2.70
2023-04-06T10:03:10.043Z,3.10
2023-04-06T10:05:44.558Z,2.90
2023-04-06T10:08:14.203Z,4.22
2023-04-06T10:10:44.955Z,6.28
2023-04-06T10:13:14.163Z,2.95
2023-04-06T10:15:43.239Z,3.33
2023-04-06T10:18:11.574Z,2.58
2023-04-06T10:20:44.460Z,3.53
2023-04-06T10:23:17.161Z,3.60
2023-04-06T10:25:56.696Z,3.58
2023-04-06T10:28:26.013Z,4.55
2023-04-06T10:31:00.626Z,3.08
2023-04-06T10:33:29.257Z,3.28
2023-04-06T10:35:57.843Z,2.90
2023-04-06T10:38:39.696Z,3.10
2023-04-06T10:41:12.503Z,2.95
2023-04-06T10:43:42.555Z,2.97
2023-04-06T10:46:12.771Z,2.50
2023-04-06T10:48:42.212Z,2.08
2023-04-06T10:51:12.044Z,2.35
2023-04-06T10:53:40.491Z,2.22
2023-04-06T10:56:14.023Z,2.60
2023-04-06T10:58:47.690Z,2.60
2023-04-06T11:01:17.422Z,2.20
2023-04-06T11:03:47.274Z,2.47
2023-04-06T11:06:21.653Z,2.60
2023-04-06T11:08:51.250Z,2.10
2023-04-06T11:11:22.456Z,3.25
2023-04-06T11:13:53.615Z,3.80
2023-04-06T11:16:23.545Z,4.95
2023-04-06T11:18:53.750Z,2.92
2023-04-06T11:21:23.166Z,2.15
2023-04-06T11:23:51.390Z,3.95
2023-04-06T11:26:21.507Z,3.10
2023-04-06T11:28:50.171Z,2.60
2023-04-06T11:31:21.167Z,3.70
2023-04-06T11:33:49.480Z,4.53
2023-04-06T11:36:17.802Z,2.53
2023-04-06T11:38:46.065Z,2.15
2023-04-06T11:41:14.616Z,2.85
2023-04-06T11:43:50.039Z,10.93
2023-04-06T11:46:20.669Z,2.05
2023-04-06T11:48:49.179Z,2.15
2023-04-06T11:51:25.104Z,2.05
2023-04-06T11:53:53.403Z,1.90
2023-04-06T11:56:28.912Z,1.92
2023-04-06T11:58:59.710Z,3.15
2023-04-06T12:01:29.090Z,2.67
2023-04-06T12:03:58.060Z,2.65
2023-04-06T12:06:27.278Z,1.95
2023-04-06T12:08:55.897Z,2.20
2023-04-06T12:11:24.336Z,1.83
2023-04-06T12:13:52.642Z,2.08
2023-04-06T12:16:22.302Z,2.00
2023-04-06T12:18:50.741Z,2.00
2023-04-06T12:21:19.132Z,1.90
2023-04-06T12:23:47.463Z,1.75
2023-04-06T12:26:15.966Z,3.47
2023-04-06T12:28:45.814Z,2.10
2023-04-06T12:31:18.209Z,2.88
2023-04-06T12:33:49.779Z,1.67
2023-04-06T12:36:20.147Z,1.90
2023-04-06T12:38:50.217Z,1.98
2023-04-06T12:41:18.980Z,2.22
2023-04-06T12:43:47.447Z,1.50
2023-04-06T12:46:15.836Z,1.75
2023-04-06T12:48:44.118Z,1.85
2023-04-06T12:51:13.966Z,1.63
2023-04-06T12:53:42.431Z,1.50
2023-04-06T12:56:15.775Z,4.32
2023-04-06T12:58:44.132Z,2.20
2023-04-06T13:01:14.123Z,1.85
2023-04-06T13:03:43.154Z,4.18
2023-04-06T13:06:11.727Z,2.53
2023-04-06T13:08:43.062Z,4.00
2023-04-06T13:11:11.815Z,3.28
2023-04-06T13:13:40.257Z,3.17
2023-04-06T13:16:10.658Z,2.33
2023-04-06T13:18:40.202Z,3.45
2023-04-06T13:21:09.220Z,5.05
2023-04-06T13:23:37.529Z,1.67
2023-04-06T13:26:08.773Z,1.70
2023-04-06T13:28:40.131Z,1.70
2023-04-06T13:31:09.334Z,1.77
2023-04-06T13:33:38.141Z,2.53
2023-04-06T13:36:08.509Z,1.98
2023-04-06T13:38:36.984Z,1.88
2023-04-06T13:41:06.700Z,2.08
2023-04-06T13:43:34.822Z,1.63
2023-04-06T13:46:03.053Z,1.63
2023-04-06T13:48:31.725Z,1.80
2023-04-06T13:51:00.201Z,2.38
2023-04-06T13:53:28.441Z,2.03
2023-04-06T13:55:56.856Z,2.88
2023-04-06T13:58:26.946Z,1.50
2023-04-06T14:00:55.306Z,1.50
2023-04-06T14:03:25.408Z,1.58
2023-04-06T14:05:53.998Z,2.15
2023-04-06T14:08:23.003Z,1.40
2023-04-06T14:10:51.284Z,1.50
2023-04-06T14:13:20.206Z,1.50
2023-04-06T14:15:54.590Z,1.45
2023-04-06T14:18:23.324Z,1.52
2023-04-06T14:20:56.945Z,1.85
2023-04-06T14:23:27.029Z,1.75
2023-04-06T14:26:04.621Z,2.40
2023-04-06T14:28:33.589Z,1.63
2023-04-06T14:31:04.198Z,1.52
2023-04-06T14:33:32.604Z,1.65
2023-04-06T14:36:00.762Z,2.03
2023-04-06T14:38:28.974Z,1.52
2023-04-06T14:40:57.289Z,1.50
2023-04-06T14:43:25.987Z,1.38
2023-04-06T14:45:54.370Z,3.78
2023-04-06T14:48:24.081Z,2.40
2023-04-06T14:50:56.048Z,3.08
2023-04-06T14:53:24.223Z,2.55
2023-04-06T14:55:53.670Z,3.55
2023-04-06T14:58:22.820Z,1.40
2023-04-06T15:00:51.292Z,1.23
2023-04-06T15:03:19.602Z,1.70
2023-04-06T15:05:49.569Z,1.50
2023-04-06T15:08:18.329Z,4.53
2023-04-06T15:10:46.590Z,1.67
2023-04-06T15:13:14.918Z,1.80
2023-04-06T15:15:43.262Z,4.07
2023-04-06T15:18:11.518Z,2.10
2023-04-06T15:20:39.929Z,2.07
2023-04-06T15:23:09.637Z,1.70
2023-04-06T15:25:37.830Z,1.63
2023-04-06T15:28:06.083Z,2.77
2023-04-06T15:30:34.464Z,1.33
2023-04-06T15:33:04.720Z,1.70
2023-04-06T15:35:34.701Z,1.30
2023-04-06T15:38:03.300Z,1.80
2023-04-06T15:40:32.914Z,5.30
2023-04-06T15:43:01.121Z,1.30
2023-04-06T15:45:29.364Z,2.00
2023-04-06T15:47:57.745Z,1.63
2023-04-06T15:50:26.069Z,2.07
2023-04-06T15:52:54.293Z,2.40
2023-04-06T15:55:22.490Z,1.80
2023-04-06T15:57:52.898Z,1.30
2023-04-06T16:00:21.825Z,2.17
2023-04-06T16:02:50.355Z,1.27
2023-04-06T16:05:18.783Z,1.67
2023-04-06T16:07:46.911Z,1.80
2023-04-06T16:10:15.156Z,1.77
2023-04-06T16:12:44.036Z,1.50
2023-04-06T16:15:14.103Z,1.30
2023-04-06T16:17:43.729Z,1.57
2023-04-06T16:20:13.054Z,1.20
2023-04-06T16:22:42.093Z,1.53
2023-04-06T16:25:11.556Z,1.37
2023-04-06T16:27:39.704Z,1.77
2023-04-06T16:30:09.182Z,4.80
2023-04-06T16:32:39.129Z,2.07
2023-04-06T16:35:08.250Z,1.67
2023-04-06T16:37:36.366Z,3.23
2023-04-06T16:40:04.994Z,2.43
2023-04-06T16:42:33.191Z,1.37
2023-04-06T16:45:01.441Z,2.77
2023-04-06T16:47:29.689Z,2.23
2023-04-06T16:50:05.829Z,1.67
2023-04-06T16:52:34.861Z,1.67
2023-04-06T16:55:03.114Z,1.50
2023-04-06T16:57:31.326Z,1.27
2023-04-06T16:59:59.807Z,1.60
2023-04-06T17:02:28.113Z,2.73
2023-04-06T17:04:56.290Z,1.70
2023-04-06T17:07:32.347Z,2.10
2023-04-06T17:10:01.747Z,1.80
2023-04-06T17:12:29.910Z,1.80
2023-04-06T17:14:58.946Z,3.20
2023-04-06T17:17:27.159Z,1.30
2023-04-06T17:19:55.314Z,2.00
2023-04-06T17:22:23.529Z,2.00
2023-04-06T17:24:53.333Z,3.00
2023-04-06T17:27:23.585Z,1.83
2023-04-06T17:29:51.914Z,2.60
2023-04-06T17:32:21.993Z,1.70
2023-04-06T17:34:50.230Z,1.77
2023-04-06T17:37:18.419Z,2.47
2023-04-06T17:39:46.844Z,1.50
2023-04-06T17:42:16.458Z,1.90
2023-04-06T17:44:44.799Z,1.50
2023-04-06T17:47:13.084Z,5.57
2023-04-06T17:49:41.360Z,1.93
2023-04-06T17:52:09.850Z,2.60
2023-04-06T17:54:38.294Z,2.47
2023-04-06T17:57:07.888Z,3.00
2023-04-06T17:59:37.624Z,2.17
2023-04-06T18:02:07.286Z,2.20
2023-04-06T18:04:35.629Z,2.70
2023-04-06T18:07:03.797Z,2.53
2023-04-06T18:09:32.323Z,1.97
2023-04-06T18:12:01.397Z,2.50
2023-04-06T18:14:29.694Z,4.30
2023-04-06T18:16:59.541Z,3.07
2023-04-06T18:19:28.981Z,2.70
2023-04-06T18:21:57.202Z,5.20
2023-04-06T18:24:40.613Z,2.87
2023-04-06T18:27:11.052Z,2.50
2023-04-06T18:29:39.306Z,2.17
2023-04-06T18:32:09.067Z,4.33
2023-04-06T18:34:37.358Z,5.07
2023-04-06T18:37:05.995Z,5.47
2023-04-06T18:39:34.333Z,4.50
2023-04-06T18:42:03.119Z,2.77
2023-04-06T18:44:32.437Z,4.83
2023-04-06T18:47:01.246Z,4.77
2023-04-06T18:49:31.307Z,2.30
2023-04-06T18:51:59.616Z,12.53
2023-04-06T18:54:28.241Z,4.70
2023-04-06T18:56:56.998Z,4.73
2023-04-06T18:59:31.857Z,6.57
2023-04-06T19:02:00.526Z,9.53
2023-04-06T19:04:31.261Z,8.07
2023-04-06T19:07:00.975Z,7.43
2023-04-06T19:09:29.562Z,4.60
2023-04-06T19:11:57.942Z,5.00
2023-04-06T19:14:26.433Z,9.63
2023-04-06T19:16:55.088Z,4.80
2023-04-06T19:19:23.747Z,10.57
2023-04-06T19:21:53.677Z,5.23
2023-04-06T19:24:21.884Z,7.67
2023-04-06T19:26:50.186Z,3.17
2023-04-06T19:29:18.603Z,5.13
2023-04-06T19:31:47.164Z,3.00
2023-04-06T19:34:17.885Z,3.47
2023-04-06T19:36:46.643Z,2.73
2023-04-06T19:39:17.042Z,5.97
2023-04-06T19:41:45.526Z,3.37
2023-04-06T19:44:13.748Z,2.83
2023-04-06T19:46:42.737Z,3.43
2023-04-06T19:49:11.049Z,4.77
2023-04-06T19:51:39.493Z,3.97
2023-04-06T19:54:07.971Z,3.20
2023-04-06T19:56:37.558Z,5.20
2023-04-06T19:59:05.943Z,5.80
2023-04-06T20:01:34.239Z,8.43
2023-04-06T20:04:02.558Z,3.13
2023-04-06T20:06:31.294Z,7.83
2023-04-06T20:08:59.453Z,2.60
2023-04-06T20:11:27.741Z,4.20
2023-04-06T20:13:57.409Z,5.67
2023-04-06T20:16:25.685Z,7.20
2023-04-06T20:18:53.771Z,5.47
2023-04-06T20:21:21.878Z,5.53
2023-04-06T20:23:50.054Z,4.50
2023-04-06T20:26:18.187Z,6.63
2023-04-06T20:28:46.466Z,5.63
2023-04-06T20:31:15.864Z,6.03
2023-04-06T20:33:44.033Z,3.80
2023-04-06T20:36:12.751Z,4.50
2023-04-06T20:38:41.007Z,4.10
2023-04-06T20:41:10.336Z,3.67
2023-04-06T20:43:38.546Z,3.33
2023-04-06T20:46:09.321Z,2.87
2023-04-06T20:48:39.114Z,4.87
2023-04-06T20:51:07.256Z,3.77
2023-04-06T20:53:35.783Z,3.27
2023-04-06T20:56:04.240Z,5.53
2023-04-06T20:58:32.515Z,4.03
2023-04-06T21:01:00.593Z,6.03
2023-04-06T21:03:28.954Z,3.13
2023-04-06T21:05:59.982Z,5.47
2023-04-06T21:08:28.193Z,3.47
2023-04-06T21:10:56.418Z,5.43
2023-04-06T21:13:24.705Z,3.70
2023-04-06T21:15:52.970Z,4.53
2023-04-06T21:18:22.227Z,3.83
2023-04-06T21:20:50.743Z,6.10
2023-04-06T21:23:20.446Z,4.47
2023-04-06T21:25:50.246Z,4.63
2023-04-06T21:28:18.465Z,4.53
2023-04-06T21:30:46.560Z,3.17
2023-04-06T21:33:14.805Z,3.93
2023-04-06T21:35:43.207Z,3.50
2023-04-06T21:38:11.628Z,3.97
2023-04-06T21:40:41.548Z,4.73
2023-04-06T21:43:09.762Z,4.57
2023-04-06T21:45:38.106Z,4.47
2023-04-06T21:48:07.116Z,5.63
2023-04-06T21:50:39.943Z,4.30
2023-04-06T21:53:08.075Z,5.67
2023-04-06T21:55:36.290Z,6.83
2023-04-06T21:58:07.422Z,3.43
2023-04-06T22:00:35.650Z,6.17
2023-04-06T22:03:03.929Z,6.10
2023-04-06T22:05:32.393Z,4.10
2023-04-06T22:08:02.144Z,4.40
2023-04-06T22:10:30.898Z,4.73
2023-04-06T22:12:59.031Z,5.80
2023-04-06T22:15:28.572Z,6.80
2023-04-06T22:17:56.862Z,5.90
2023-04-06T22:20:25.018Z,3.87
2023-04-06T22:22:53.184Z,6.27
2023-04-06T22:25:21.416Z,4.77
2023-04-06T22:27:50.931Z,6.43
2023-04-06T22:30:19.179Z,6.93
2023-04-06T22:32:48.723Z,7.87
2023-04-06T22:35:17.109Z,5.20
2023-04-06T22:37:45.544Z,4.70
2023-04-06T22:40:14.277Z,6.27
2023-04-06T22:42:42.544Z,9.27
2023-04-06T22:45:11.379Z,3.60
2023-04-06T22:47:41.725Z,6.07
2023-04-06T22:50:12.228Z,3.57
2023-04-06T22:52:40.396Z,3.40
2023-04-06T22:55:09.042Z,5.03
2023-04-06T22:57:37.117Z,4.23
2023-04-06T23:00:06.484Z,4.87
2023-04-06T23:02:34.897Z,4.90
2023-04-06T23:05:03.209Z,4.00
2023-04-06T23:07:33.367Z,5.33
2023-04-06T23:10:01.637Z,7.03
2023-04-06T23:12:29.820Z,5.13
2023-04-06T23:14:57.963Z,4.87
2023-04-06T23:17:26.211Z,7.33
2023-04-06T23:19:54.728Z,5.47
2023-04-06T23:22:22.972Z,4.30
2023-04-06T23:24:52.436Z,4.77
2023-04-06T23:27:20.582Z,4.67
2023-04-06T23:29:48.826Z,5.07
2023-04-06T23:32:17.561Z,7.40
2023-04-06T23:34:45.754Z,6.30
2023-04-06T23:37:13.873Z,5.63
2023-04-06T23:39:42.905Z,5.67
2023-04-06T23:42:12.390Z,5.90
2023-04-06T23:44:40.562Z,5.37
2023-04-06T23:47:08.751Z,4.80
2023-04-06T23:49:36.856Z,5.77
2023-04-06T23:52:05.075Z,4.30
2023-04-06T23:54:33.163Z,5.13
2023-04-06T23:57:01.436Z,4.97
2023-04-06T23:59:30.844Z,5.10
